Strathroy, Canada
Current Conditions -  °F | °C
As of 3:00 AM on Monday 22 Dec 2014 (Local Time) from CYXU Reporting Station
Overcast Overcast  
Wind Chill: 23°   Ceiling: 2100
Heat Index: 30°   Visibility: 12mi
Dew Point: 25°   Wind: 8mph
Humidity: 80%   Direction: 130°SE
Pressure: 30.18"   Gusts: NA
Location:  42.96°N, 81.62°W
Report Text: CYXU 220800Z 13007KT 12SM OVC021 M01/M04 A3018 RMK SC8 SLP233
Loading
Personal Weather Stations






























Interactive Weather Map New forecast layout! Learn more

10-Day Weather Forecast

Advertisements
Track Severe Weather on mobile